Time;durP1;ratioP1;P1;durP2;ratioP2;P2;SDS_P1;SDS_P2;PMS_P1;PMS_P2;Temp;Humidity;BMP_temperature;BMP_pressure;BME280_temperature;BME280_humidity;BME280_pressure;Samples;Min_cycle;Max_cycle;Signal;HPM_P1;HPM_P2
2021/03/17 00:01:55;;;;;;;;;;;;;;;11.55;37.05;99803.16;4456743;32;33900;-87
2021/03/17 00:04:42;;;;;;;;;;;;;;;11.43;37.12;99807.03;4457052;32;33079;-87
2021/03/17 00:07:28;;;;;;;;;;;;;;;12.00;35.99;99802.50;4456877;32;34182;-86
2021/03/17 00:10:14;;;;;;;;;;;;;;;12.00;36.11;99802.50;4467797;32;33376;-88
2021/03/17 00:13:01;;;;;;;;;;;;;;;11.92;36.12;99807.94;4471321;32;33938;-87
2021/03/17 00:15:47;;;;;;;;;;;;;;;11.81;36.46;99797.03;4461865;32;33680;-87
2021/03/17 00:18:33;;;;;;;;;;;;;;;12.33;35.45;99794.34;4465619;32;33610;-87
2021/03/17 00:21:19;;;;;;;;;;;;;;;11.98;36.06;99797.31;4476253;32;34313;-87
2021/03/17 00:24:06;;;;;;;;;;;;;;;12.22;35.54;99789.50;4473208;32;34570;-88
2021/03/17 00:26:51;;;;;;;;;;;;;;;11.61;36.90;99793.38;4459428;32;33208;-87
2021/03/17 00:29:38;;;;;;;;;;;;;;;11.69;36.59;99791.34;4459349;32;32990;-87
2021/03/17 00:32:24;;;;;;;;;;;;;;;10.89;38.30;99780.94;4476210;32;34010;-87
2021/03/17 00:35:11;;;;;;;;;;;;;;;11.17;37.91;99777.47;4454733;32;34192;-88
2021/03/17 00:37:56;;;;;;;;;;;;;;;10.89;38.39;99780.94;4485304;32;34878;-87
2021/03/17 00:40:42;;;;;;;;;;;;;;;11.10;37.95;99778.53;4473060;32;34485;-87
2021/03/17 00:43:28;;;;;;;;;;;;;;;10.84;38.77;99782.84;4472908;32;32836;-87
2021/03/17 00:46:14;;;;;;;;;;;;;;;11.27;37.92;99775.38;4458966;32;34497;-88
2021/03/17 00:48:42;;;;;;;;;;;;;;;11.27;37.92;99773.63;4470147;32;33992;-87
2021/03/17 00:51:11;;;;;;;;;;;;;;;11.97;36.28;99774.72;4483050;32;34021;-87
2021/03/17 00:53:57;;;;;;;;;;;;;;;11.35;37.53;99774.25;4472650;32;32987;-88
2021/03/17 00:56:24;;;;;;;;;;;;;;;10.81;38.78;99767.28;4470294;32;34934;-87
2021/03/17 00:58:58;;;;;;;;;;;;;;;10.95;38.64;99765.09;4470669;32;34925;-86
2021/03/17 01:01:25;;;;;;;;;;;;;;;10.89;38.57;99762.72;4444208;32;32933;-87
2021/03/17 01:03:53;;;;;;;;;;;;;;;10.80;38.79;99761.22;4469866;32;32149;-87
2021/03/17 01:06:20;;;;;;;;;;;;;;;10.53;39.58;99760.34;4456769;32;33789;-87
2021/03/17 01:08:48;;;;;;;;;;;;;;;10.83;38.90;99770.72;4469539;32;33222;-87
2021/03/17 01:11:15;;;;;;;;;;;;;;;10.13;40.44;99764.94;4456893;32;33036;-87
2021/03/17 01:13:42;;;;;;;;;;;;;;;10.03;40.77;99768.69;4469896;32;33347;-87
2021/03/17 01:16:10;;;;;;;;;;;;;;;10.35;39.71;99770.41;4456890;32;32904;-87
2021/03/17 01:18:38;;;;;;;;;;;;;;;9.53;41.94;99774.38;4469937;32;34289;-87
2021/03/17 01:21:05;;;;;;;;;;;;;;;10.28;40.11;99774.06;4456948;32;33818;-87
2021/03/17 01:23:32;;;;;;;;;;;;;;;10.50;39.44;99769.09;4469545;32;32163;-88
2021/03/17 01:26:00;;;;;;;;;;;;;;;10.78;38.78;99778.69;4456795;32;32602;-87
2021/03/17 01:28:26;;;;;;;;;;;;;;;10.50;39.37;99774.31;4468766;32;35017;-87
2021/03/17 01:30:55;;;;;;;;;;;;;;;10.45;39.72;99772.72;4469521;32;34195;-87
2021/03/17 01:33:28;;;;;;;;;;;;;;;10.75;38.85;99764.87;4456812;32;33722;-87
2021/03/17 01:35:57;;;;;;;;;;;;;;;10.59;39.12;99769.72;4443904;32;33078;-87
2021/03/17 01:38:25;;;;;;;;;;;;;;;10.84;38.84;99769.81;4469754;32;33721;-87
2021/03/17 01:40:53;;;;;;;;;;;;;;;10.28;39.93;99760.19;4456748;32;33177;-88
2021/03/17 01:43:21;;;;;;;;;;;;;;;10.63;39.41;99753.09;4457479;32;33778;-87
2021/03/17 01:45:48;;;;;;;;;;;;;;;10.94;38.64;99747.78;4472599;32;33706;-87
2021/03/17 01:48:17;;;;;;;;;;;;;;;10.81;38.77;99754.25;4459900;32;33664;-87
2021/03/17 01:50:51;;;;;;;;;;;;;;;11.31;37.88;99746.53;4470862;32;34985;-87
2021/03/17 01:53:23;;;;;;;;;;;;;;;10.63;38.92;99738.31;4469892;32;33858;-87
2021/03/17 01:55:50;;;;;;;;;;;;;;;10.30;40.04;99746.25;4469718;32;34118;-87
2021/03/17 01:58:18;;;;;;;;;;;;;;;10.99;38.59;99734.56;4456673;32;33301;-87
2021/03/17 02:00:47;;;;;;;;;;;;;;;11.11;38.47;99739.38;4456593;32;33862;-87
2021/03/17 02:03:15;;;;;;;;;;;;;;;10.84;38.87;99731.56;4456739;32;32599;-88
2021/03/17 02:05:44;;;;;;;;;;;;;;;10.90;38.84;99740.09;4456777;32;32860;-87
2021/03/17 02:08:12;;;;;;;;;;;;;;;10.69;39.34;99743.34;4469327;32;33747;-87
2021/03/17 02:10:39;;;;;;;;;;;;;;;11.23;38.30;99745.94;4469384;32;34155;-87
2021/03/17 02:13:07;;;;;;;;;;;;;;;10.42;40.10;99744.19;4456456;32;32088;-87
2021/03/17 02:15:57;;;;;;;;;;;;;;;10.34;40.38;99734.81;4456461;32;33895;-87
2021/03/17 02:18:25;;;;;;;;;;;;;;;9.87;41.23;99742.25;4456603;32;33302;-88
2021/03/17 02:20:52;;;;;;;;;;;;;;;10.52;40.14;99748.22;4469263;32;34347;-87
2021/03/17 02:23:20;;;;;;;;;;;;;;;10.38;40.27;99738.19;4456251;32;32024;-87
2021/03/17 02:26:06;;;;;;;;;;;;;;;11.18;38.75;99734.81;4469356;32;34022;-87
2021/03/17 02:28:48;;;;;;;;;;;;;;;10.73;39.64;99735.41;4468840;32;32882;-87
2021/03/17 02:31:29;;;;;;;;;;;;;;;10.54;40.36;99738.59;4469144;32;32857;-87
2021/03/17 02:34:00;;;;;;;;;;;;;;;9.93;41.72;99744.69;4469335;32;32746;-87
2021/03/17 02:36:28;;;;;;;;;;;;;;;9.81;41.83;99740.69;4469372;32;32919;-88
2021/03/17 02:39:19;;;;;;;;;;;;;;;10.64;40.21;99741.78;4469074;32;33025;-88
2021/03/17 02:42:02;;;;;;;;;;;;;;;10.45;40.40;99734.53;4453921;32;33035;-87
2021/03/17 02:44:30;;;;;;;;;;;;;;;10.72;39.95;99731.97;4456423;32;32156;-88
2021/03/17 02:46:59;;;;;;;;;;;;;;;11.22;38.88;99738.16;4469485;32;33980;-88
2021/03/17 02:49:34;;;;;;;;;;;;;;;10.91;39.17;99740.03;4469266;32;34545;-88
2021/03/17 02:52:02;;;;;;;;;;;;;;;9.96;41.56;99736.78;4469356;32;34383;-87
2021/03/17 02:54:29;;;;;;;;;;;;;;;10.13;40.75;99738.03;4469323;32;34076;-87
2021/03/17 02:56:57;;;;;;;;;;;;;;;10.17;40.95;99739.66;4456513;32;32782;-88
2021/03/17 02:59:25;;;;;;;;;;;;;;;10.40;40.57;99740.75;4470077;32;34821;-87
2021/03/17 03:01:53;;;;;;;;;;;;;;;10.65;39.95;99741.72;4469994;32;34595;-87
2021/03/17 03:04:20;;;;;;;;;;;;;;;10.01;41.29;99741.84;4469545;32;31868;-87
2021/03/17 03:06:49;;;;;;;;;;;;;;;10.50;40.45;99737.84;4469146;31;34145;-88
2021/03/17 03:09:20;;;;;;;;;;;;;;;10.39;40.69;99733.87;4456179;32;34164;-87
2021/03/17 03:11:47;;;;;;;;;;;;;;;10.50;40.45;99731.78;4456098;32;33013;-88
2021/03/17 03:14:15;;;;;;;;;;;;;;;9.80;41.89;99735.53;4456071;32;32551;-87
2021/03/17 03:16:56;;;;;;;;;;;;;;;10.08;41.71;99730.38;4457221;32;32758;-88
2021/03/17 03:19:25;;;;;;;;;;;;;;;10.53;40.52;99731.69;4455950;32;34008;-87
2021/03/17 03:21:52;;;;;;;;;;;;;;;10.29;41.09;99738.44;4443262;32;32853;-87
2021/03/17 03:24:20;;;;;;;;;;;;;;;10.17;41.63;99734.44;4456032;32;32287;-88
2021/03/17 03:26:48;;;;;;;;;;;;;;;10.59;40.51;99739.31;4455908;32;33397;-88
2021/03/17 03:29:15;;;;;;;;;;;;;;;9.87;41.73;99734.44;4455867;32;33543;-88
2021/03/17 03:31:42;;;;;;;;;;;;;;;10.58;40.64;99729.78;4455917;32;33583;-87
2021/03/17 03:34:10;;;;;;;;;;;;;;;9.44;43.00;99735.59;4468835;32;33307;-87
2021/03/17 03:36:37;;;;;;;;;;;;;;;9.58;43.06;99743.91;4455882;32;34149;-87
2021/03/17 03:39:04;;;;;;;;;;;;;;;10.20;41.67;99736.97;4468519;32;34030;-87
2021/03/17 03:41:32;;;;;;;;;;;;;;;10.01;42.13;99740.13;4442571;32;33792;-87
2021/03/17 03:44:07;;;;;;;;;;;;;;;10.43;40.98;99731.09;4456167;32;32386;-88
2021/03/17 03:46:35;;;;;;;;;;;;;;;10.36;40.94;99740.84;4468250;32;34341;-88
2021/03/17 03:49:03;;;;;;;;;;;;;;;10.72;40.28;99741.53;4455082;32;33206;-87
2021/03/17 03:51:32;;;;;;;;;;;;;;;10.17;41.53;99737.94;4469317;32;34059;-87
2021/03/17 03:54:02;;;;;;;;;;;;;;;10.40;41.17;99732.94;4470447;32;33374;-87
2021/03/17 03:56:34;;;;;;;;;;;;;;;9.78;42.60;99742.50;4469833;32;32777;-88
2021/03/17 03:59:12;;;;;;;;;;;;;;;10.56;40.94;99739.41;4470673;32;34470;-88
2021/03/17 04:01:39;;;;;;;;;;;;;;;9.90;42.42;99731.75;4444557;32;34320;-87
2021/03/17 04:04:12;;;;;;;;;;;;;;;10.68;40.65;99736.41;4470096;32;32189;-87
2021/03/17 04:06:39;;;;;;;;;;;;;;;10.69;40.29;99750.31;4456906;32;32921;-87
2021/03/17 04:09:06;;;;;;;;;;;;;;;10.57;40.77;99748.94;4456710;32;34182;-88
2021/03/17 04:11:34;;;;;;;;;;;;;;;10.07;41.97;99751.25;4456969;32;33803;-86
2021/03/17 04:14:02;;;;;;;;;;;;;;;11.06;39.55;99743.03;4456951;32;32812;-86
2021/03/17 04:16:31;;;;;;;;;;;;;;;10.27;41.30;99746.31;4470231;32;34166;-87
2021/03/17 04:18:59;;;;;;;;;;;;;;;10.72;40.11;99744.16;4470233;32;33798;-87
2021/03/17 04:21:27;;;;;;;;;;;;;;;9.85;42.64;99744.03;4456885;32;33861;-86
2021/03/17 04:23:55;;;;;;;;;;;;;;;10.66;40.57;99743.44;4470329;32;33176;-86
2021/03/17 04:26:22;;;;;;;;;;;;;;;10.99;39.81;99742.41;4469771;32;33967;-89
2021/03/17 04:28:50;;;;;;;;;;;;;;;10.66;40.36;99743.44;4469914;32;33914;-86
2021/03/17 04:31:17;;;;;;;;;;;;;;;10.62;40.54;99749.66;4456932;32;34201;-86
2021/03/17 04:33:45;;;;;;;;;;;;;;;11.06;39.24;99746.50;4444274;32;33151;-86
2021/03/17 04:36:12;;;;;;;;;;;;;;;10.86;39.94;99739.31;4469608;32;32743;-86
2021/03/17 04:38:40;;;;;;;;;;;;;;;10.39;40.80;99744.28;4457046;32;33059;-86
2021/03/17 04:41:07;;;;;;;;;;;;;;;10.75;40.02;99741.44;4470073;32;34006;-86
2021/03/17 04:43:38;;;;;;;;;;;;;;;10.45;40.49;99746.69;4469969;32;34033;-86
2021/03/17 04:46:06;;;;;;;;;;;;;;;10.56;40.37;99743.78;4457321;32;33042;-87
2021/03/17 04:48:33;;;;;;;;;;;;;;;10.64;40.44;99747.81;4456882;32;33243;-86
2021/03/17 04:51:00;;;;;;;;;;;;;;;10.82;39.92;99754.22;4456107;32;33557;-86
2021/03/17 04:53:27;;;;;;;;;;;;;;;9.46;43.28;99750.28;4470259;32;33772;-87
2021/03/17 04:55:55;;;;;;;;;;;;;;;9.84;42.44;99753.59;4469743;32;34156;-86
2021/03/17 04:58:24;;;;;;;;;;;;;;;9.86;42.22;99753.56;4456672;32;32983;-86
2021/03/17 05:00:51;;;;;;;;;;;;;;;7.66;47.49;99761.19;4469703;32;34154;-87
2021/03/17 05:03:21;;;;;;;;;;;;;;;9.00;44.53;99759.22;4470059;32;33950;-88
2021/03/17 05:05:50;;;;;;;;;;;;;;;9.81;42.66;99753.69;4469487;32;34021;-87
2021/03/17 05:08:18;;;;;;;;;;;;;;;8.29;45.99;99766.00;4470335;32;33942;-87
2021/03/17 05:10:46;;;;;;;;;;;;;;;9.10;44.34;99768.50;4456593;32;32967;-85
2021/03/17 05:13:14;;;;;;;;;;;;;;;9.33;43.40;99756.69;4456686;32;32438;-88
2021/03/17 05:15:42;;;;;;;;;;;;;;;9.35;43.63;99755.75;4456927;32;32968;-89
2021/03/17 05:18:10;;;;;;;;;;;;;;;9.84;42.41;99763.16;4456963;32;33192;-89
2021/03/17 05:20:38;;;;;;;;;;;;;;;9.12;44.14;99758.06;4456751;32;33702;-89
2021/03/17 05:23:05;;;;;;;;;;;;;;;10.32;41.13;99759.22;4470626;32;32319;-86
2021/03/17 05:25:32;;;;;;;;;;;;;;;10.55;40.62;99758.53;4473712;32;34095;-86
2021/03/17 05:28:06;;;;;;;;;;;;;;;10.89;39.82;99760.09;4462283;32;32878;-89
2021/03/17 05:30:38;;;;;;;;;;;;;;;10.27;40.95;99758.47;4459789;32;34361;-88
2021/03/17 05:33:06;;;;;;;;;;;;;;;10.79;39.86;99761.28;4458174;32;31925;-89
2021/03/17 05:35:35;;;;;;;;;;;;;;;11.04;39.36;99753.53;4457373;32;33889;-90
2021/03/17 05:38:03;;;;;;;;;;;;;;;10.81;39.76;99755.13;4444103;32;33820;-86
2021/03/17 05:40:30;;;;;;;;;;;;;;;10.83;39.57;99755.06;4469628;32;33683;-89
2021/03/17 05:42:58;;;;;;;;;;;;;;;10.89;39.56;99748.81;4443937;32;32175;-87
2021/03/17 05:45:27;;;;;;;;;;;;;;;11.15;39.09;99750.56;4444249;32;33007;-90
2021/03/17 05:48:07;;;;;;;;;;;;;;;11.12;38.98;99748.06;4456561;32;32802;-89
2021/03/17 05:50:35;;;;;;;;;;;;;;;11.57;38.19;99751.75;4469738;32;33828;-86
2021/03/17 05:53:04;;;;;;;;;;;;;;;11.52;38.11;99752.78;4457043;32;33036;-87
2021/03/17 05:55:32;;;;;;;;;;;;;;;11.69;37.78;99754.78;4482996;32;34101;-87
2021/03/17 05:57:59;;;;;;;;;;;;;;;10.67;39.79;99750.31;4469524;32;34865;-86
2021/03/17 06:00:27;;;;;;;;;;;;;;;10.10;41.47;99758.97;4469605;32;34084;-87
2021/03/17 06:02:55;;;;;;;;;;;;;;;11.52;38.53;99757.16;4469530;32;33385;-87
2021/03/17 06:05:23;;;;;;;;;;;;;;;11.43;38.61;99762.69;4456644;32;33396;-87
2021/03/17 06:08:02;;;;;;;;;;;;;;;11.77;37.74;99766.75;4469487;32;34033;-87
2021/03/17 06:10:31;;;;;;;;;;;;;;;11.21;38.71;99763.41;4456671;32;33069;-87
2021/03/17 06:12:59;;;;;;;;;;;;;;;11.70;37.77;99766.09;4456033;32;32280;-86
2021/03/17 06:15:27;;;;;;;;;;;;;;;11.27;38.45;99773.63;4469241;32;33291;-87
2021/03/17 06:17:58;;;;;;;;;;;;;;;11.42;38.05;99774.88;4456703;32;33331;-87
2021/03/17 06:20:26;;;;;;;;;;;;;;;11.72;37.39;99779.94;4469678;32;34661;-86
2021/03/17 06:22:58;;;;;;;;;;;;;;;11.53;37.62;99771.91;4470055;32;33074;-86
2021/03/17 06:25:25;;;;;;;;;;;;;;;11.79;36.96;99788.41;4456483;32;32719;-87
2021/03/17 06:27:52;;;;;;;;;;;;;;;12.30;36.14;99784.84;4456228;32;32929;-85
2021/03/17 06:30:20;;;;;;;;;;;;;;;12.38;35.92;99781.94;4469503;32;34093;-85
2021/03/17 06:32:48;;;;;;;;;;;;;;;12.73;35.31;99786.75;4455960;32;33140;-84
2021/03/17 06:35:21;;;;;;;;;;;;;;;12.14;36.21;99788.94;4449850;32;33761;-84
2021/03/17 06:37:52;;;;;;;;;;;;;;;12.37;35.95;99788.91;4446306;32;34329;-84
2021/03/17 06:40:21;;;;;;;;;;;;;;;12.39;35.89;99801.09;4451556;32;32861;-85
2021/03/17 06:42:48;;;;;;;;;;;;;;;12.67;35.12;99798.25;4445176;32;32186;-84
2021/03/17 06:45:27;;;;;;;;;;;;;;;13.30;33.95;99793.13;4442975;32;34001;-85
2021/03/17 06:47:54;;;;;;;;;;;;;;;11.84;36.49;99794.31;4457198;32;33105;-84
2021/03/17 06:50:29;;;;;;;;;;;;;;;12.39;35.59;99808.91;4448756;32;33182;-85
2021/03/17 06:52:56;;;;;;;;;;;;;;;11.65;36.83;99813.22;4443720;32;32173;-85
2021/03/17 06:55:24;;;;;;;;;;;;;;;10.34;40.31;99815.56;4439660;32;34020;-84
2021/03/17 06:57:52;;;;;;;;;;;;;;;11.34;38.15;99816.88;4445057;32;33778;-83
2021/03/17 07:00:26;;;;;;;;;;;;;;;11.98;37.14;99809.53;4453397;32;34149;-87
2021/03/17 07:02:54;;;;;;;;;;;;;;;12.43;36.13;99811.37;4457465;32;32945;-86
2021/03/17 07:05:29;;;;;;;;;;;;;;;12.64;35.41;99808.84;4453838;32;33267;-83
2021/03/17 07:07:58;;;;;;;;;;;;;;;11.14;38.64;99803.63;4460252;32;34093;-84
2021/03/17 07:10:29;;;;;;;;;;;;;;;12.13;36.63;99805.53;4444589;32;33522;-85
2021/03/17 07:12:57;;;;;;;;;;;;;;;12.34;36.35;99799.50;4444703;32;33280;-85
2021/03/17 07:15:26;;;;;;;;;;;;;;;11.95;36.89;99809.63;4443021;32;34292;-85
2021/03/17 07:17:54;;;;;;;;;;;;;;;11.58;37.44;99805.66;4441336;32;34221;-85
2021/03/17 07:20:36;;;;;;;;;;;;;;;10.95;38.83;99812.00;4459320;32;34180;-85
2021/03/17 07:23:20;;;;;;;;;;;;;;;12.05;36.58;99813.62;4457454;32;33242;-86
2021/03/17 07:26:07;;;;;;;;;;;;;;;12.76;35.13;99810.13;4436255;32;33324;-85
2021/03/17 07:28:49;;;;;;;;;;;;;;;12.62;35.65;99806.28;4442964;32;33325;-85
2021/03/17 07:31:19;;;;;;;;;;;;;;;13.15;34.46;99810.31;4464243;32;34941;-87
2021/03/17 07:33:47;;;;;;;;;;;;;;;12.09;36.30;99801.31;4455461;32;33551;-87
2021/03/17 07:36:33;;;;;;;;;;;;;;;13.42;34.00;99810.13;4464951;32;33680;-85
2021/03/17 07:39:04;;;;;;;;;;;;;;;12.89;34.50;99807.91;4428230;32;32987;-85
2021/03/17 07:41:32;;;;;;;;;;;;;;;13.03;34.32;99806.44;4427124;32;34475;-86
2021/03/17 07:44:01;;;;;;;;;;;;;;;13.29;34.07;99798.44;4452385;32;32987;-85
2021/03/17 07:46:29;;;;;;;;;;;;;;;13.89;32.77;99803.78;4439897;32;32867;-85
2021/03/17 07:48:59;;;;;;;;;;;;;;;14.42;31.75;99802.28;4463587;32;34591;-85
2021/03/17 07:51:27;;;;;;;;;;;;;;;14.64;31.35;99803.97;4451362;32;34451;-86
2021/03/17 07:53:54;;;;;;;;;;;;;;;14.76;31.11;99798.16;4463704;32;33376;-86
2021/03/17 07:56:23;;;;;;;;;;;;;;;14.59;31.09;99798.06;4439624;32;33863;-86
2021/03/17 07:58:52;;;;;;;;;;;;;;;13.19;33.53;99806.66;4452647;32;34967;-85
2021/03/17 08:01:20;;;;;;;;;;;;;;;14.24;31.72;99805.75;4442924;32;33028;-85
2021/03/17 08:03:49;;;;;;;;;;;;;;;13.95;31.89;99807.91;4432857;32;33335;-85
2021/03/17 08:06:20;;;;;;;;;;;;;;;14.22;31.43;99808.44;4454930;32;34530;-86
2021/03/17 08:08:48;;;;;;;;;;;;;;;14.23;31.38;99804.06;4443175;32;33238;-86
2021/03/17 08:11:17;;;;;;;;;;;;;;;14.61;30.87;99815.41;4455592;32;34183;-86
2021/03/17 08:13:46;;;;;;;;;;;;;;;15.02;29.85;99811.78;4456244;32;32198;-85
2021/03/17 08:16:16;;;;;;;;;;;;;;;14.72;30.67;99817.56;4468497;32;33940;-85
2021/03/17 08:18:45;;;;;;;;;;;;;;;13.99;31.62;99814.72;4455424;32;33354;-85
2021/03/17 08:21:18;;;;;;;;;;;;;;;13.90;31.53;99815.12;4443173;32;33819;-85
2021/03/17 08:23:47;;;;;;;;;;;;;;;14.25;31.04;99816.16;4451678;32;33159;-86
2021/03/17 08:26:20;;;;;;;;;;;;;;;14.22;31.32;99815.47;4464334;32;33874;-86
2021/03/17 08:28:48;;;;;;;;;;;;;;;14.44;31.08;99818.81;4449230;32;32925;-85
2021/03/17 08:31:34;;;;;;;;;;;;;;;13.72;32.44;99815.00;4451500;32;32533;-85
2021/03/17 08:34:19;;;;;;;;;;;;;;;14.99;30.59;99807.53;4462159;32;33996;-85
2021/03/17 08:36:50;;;;;;;;;;;;;;;15.56;29.61;99800.41;4454507;32;32910;-85
2021/03/17 08:39:34;;;;;;;;;;;;;;;15.79;28.92;99796.59;4472895;32;34119;-86
2021/03/17 08:42:11;;;;;;;;;;;;;;;16.33;28.28;99799.06;4454684;32;34005;-86
2021/03/17 08:44:39;;;;;;;;;;;;;;;14.94;30.37;99801.66;4454844;32;32493;-86
2021/03/17 08:47:12;;;;;;;;;;;;;;;15.56;29.32;99798.62;4441921;32;32864;-86
2021/03/17 08:49:41;;;;;;;;;;;;;;;16.33;28.23;99802.53;4455044;32;34972;-86
2021/03/17 08:52:10;;;;;;;;;;;;;;;16.29;27.97;99800.16;4441733;32;32904;-86
2021/03/17 08:54:40;;;;;;;;;;;;;;;16.46;27.74;99800.09;4448788;32;32952;-86
2021/03/17 08:57:08;;;;;;;;;;;;;;;16.80;27.43;99800.00;4454933;32;34892;-85
2021/03/17 08:59:39;;;;;;;;;;;;;;;16.30;28.13;99800.06;4450574;32;33090;-87
2021/03/17 09:02:25;;;;;;;;;;;;;;;16.80;27.12;99797.38;4461003;32;33540;-86
2021/03/17 09:04:57;;;;;;;;;;;;;;;16.87;26.96;99796.09;4453034;32;32308;-86
2021/03/17 09:07:25;;;;;;;;;;;;;;;16.91;26.63;99791.53;4430514;32;33449;-86
2021/03/17 09:10:13;;;;;;;;;;;;;;;16.74;26.61;99795.06;4456022;32;34129;-86
2021/03/17 09:12:43;;;;;;;;;;;;;;;17.72;25.23;99778.03;4454479;32;33219;-86
2021/03/17 09:15:12;;;;;;;;;;;;;;;16.57;26.77;99791.62;4454651;32;32098;-86
2021/03/17 09:17:47;;;;;;;;;;;;;;;16.71;26.87;99788.19;4461169;32;33788;-85
2021/03/17 09:20:24;;;;;;;;;;;;;;;16.33;27.77;99785.91;4441624;32;33061;-86
2021/03/17 09:23:01;;;;;;;;;;;;;;;15.92;28.21;99784.56;4441728;32;32845;-86
2021/03/17 09:25:30;;;;;;;;;;;;;;;16.40;27.46;99783.81;4455377;32;33107;-86
2021/03/17 09:28:09;;;;;;;;;;;;;;;16.58;26.90;99782.78;4441976;32;34014;-86
2021/03/17 09:30:42;;;;;;;;;;;;;;;16.75;26.70;99787.13;4445913;32;34118;-85
2021/03/17 09:33:14;;;;;;;;;;;;;;;16.74;26.80;99782.78;4457193;32;33110;-86
2021/03/17 09:35:46;;;;;;;;;;;;;;;17.31;26.00;99770.81;4444205;32;33709;-86
2021/03/17 09:38:14;;;;;;;;;;;;;;;16.59;26.89;99776.56;4452991;32;32861;-86
2021/03/17 09:40:46;;;;;;;;;;;;;;;16.53;26.90;99779.56;4442195;32;34004;-85
2021/03/17 09:43:32;;;;;;;;;;;;;;;16.77;27.07;99779.16;4429792;32;33053;-85
2021/03/17 09:46:00;;;;;;;;;;;;;;;17.11;26.24;99779.87;4455538;32;32179;-86
2021/03/17 09:48:27;;;;;;;;;;;;;;;16.76;26.92;99773.00;4441318;32;33851;-86
2021/03/17 09:50:56;;;;;;;;;;;;;;;16.74;26.64;99769.62;4442894;32;33001;-85
2021/03/17 09:53:24;;;;;;;;;;;;;;;17.03;26.30;99767.16;4442437;32;33170;-86
2021/03/17 09:55:52;;;;;;;;;;;;;;;17.58;25.42;99776.25;4440928;32;33563;-87
2021/03/17 09:58:20;;;;;;;;;;;;;;;17.91;24.88;99763.75;4456358;32;33693;-87
2021/03/17 10:00:48;;;;;;;;;;;;;;;18.00;24.63;99773.78;4439131;32;34070;-87
2021/03/17 10:03:16;;;;;;;;;;;;;;;18.86;23.31;99767.50;4454090;32;33731;-87
2021/03/17 10:05:44;;;;;;;;;;;;;;;19.09;22.68;99765.16;4441497;32;33022;-86
2021/03/17 10:08:14;;;;;;;;;;;;;;;18.78;23.34;99757.44;4442644;32;34215;-87
2021/03/17 10:10:42;;;;;;;;;;;;;;;18.66;22.61;99756.44;4441682;32;35633;-86
2021/03/17 10:13:13;;;;;;;;;;;;;;;19.18;22.20;99760.16;4454064;32;33459;-86
2021/03/17 10:15:40;;;;;;;;;;;;;;;19.39;22.24;99753.53;4441214;32;32934;-87
2021/03/17 10:18:11;;;;;;;;;;;;;;;18.55;23.62;99758.94;4448147;32;32846;-85
2021/03/17 10:20:39;;;;;;;;;;;;;;;19.64;22.31;99756.19;4443871;32;33049;-85
2021/03/17 10:23:06;;;;;;;;;;;;;;;20.07;21.81;99746.25;4446340;32;34090;-85
2021/03/17 10:25:35;;;;;;;;;;;;;;;18.51;23.68;99753.00;4442907;32;33647;-86
2021/03/17 10:28:06;;;;;;;;;;;;;;;19.58;22.25;99746.00;4450007;32;34459;-86
2021/03/17 10:30:40;;;;;;;;;;;;;;;19.75;21.76;99744.88;4456993;32;34865;-86
2021/03/17 10:33:12;;;;;;;;;;;;;;;19.72;21.83;99747.72;4456349;32;34773;-86
2021/03/17 10:35:40;;;;;;;;;;;;;;;20.40;21.14;99739.50;4457130;32;34495;-86
2021/03/17 10:38:08;;;;;;;;;;;;;;;20.48;21.30;99732.69;4438316;32;34410;-87
2021/03/17 10:40:37;;;;;;;;;;;;;;;20.09;21.75;99739.03;4458575;32;33735;-87
2021/03/17 10:43:11;;;;;;;;;;;;;;;20.69;21.11;99738.25;4451359;32;33893;-86
2021/03/17 10:45:42;;;;;;;;;;;;;;;20.18;21.63;99741.91;4457129;32;32840;-86
2021/03/17 10:48:19;;;;;;;;;;;;;;;20.79;20.98;99741.06;4455583;32;33658;-86
2021/03/17 10:50:47;;;;;;;;;;;;;;;20.98;20.59;99735.28;4456786;32;33193;-86
2021/03/17 10:53:15;;;;;;;;;;;;;;;21.01;20.42;99739.50;4469262;32;32981;-86
2021/03/17 10:55:43;;;;;;;;;;;;;;;21.48;19.69;99739.50;4453203;32;33090;-86
2021/03/17 10:58:16;;;;;;;;;;;;;;;20.95;20.36;99742.59;4453544;32;33567;-87
2021/03/17 11:00:43;;;;;;;;;;;;;;;20.56;20.79;99744.53;4451840;32;33192;-86
2021/03/17 11:03:21;;;;;;;;;;;;;;;20.62;20.73;99730.84;4448524;32;32992;-86
2021/03/17 11:05:50;;;;;;;;;;;;;;;21.02;20.20;99731.44;4439952;32;32133;-86
2021/03/17 11:08:18;;;;;;;;;;;;;;;21.52;19.57;99727.69;4441326;32;34384;-86
2021/03/17 11:10:50;;;;;;;;;;;;;;;21.46;19.37;99726.37;4454725;32;32966;-86
2021/03/17 11:13:18;;;;;;;;;;;;;;;20.76;19.98;99728.06;4450977;32;34298;-86
2021/03/17 11:15:52;;;;;;;;;;;;;;;21.36;19.26;99720.06;4477835;32;33437;-86
2021/03/17 11:18:39;;;;;;;;;;;;;;;20.73;19.89;99719.50;4449758;32;34789;-86
2021/03/17 11:21:07;;;;;;;;;;;;;;;21.39;18.97;99722.47;4443813;32;33036;-85
2021/03/17 11:23:35;;;;;;;;;;;;;;;21.32;19.46;99718.63;4431197;32;34106;-84
2021/03/17 11:26:04;;;;;;;;;;;;;;;21.30;19.04;99720.53;4440989;32;32312;-85
2021/03/17 11:28:36;;;;;;;;;;;;;;;21.62;18.57;99710.16;4455671;32;34452;-85
2021/03/17 11:31:05;;;;;;;;;;;;;;;21.21;19.02;99705.34;4467663;32;34132;-85
2021/03/17 11:33:32;;;;;;;;;;;;;;;21.40;19.05;99705.63;4451693;32;33844;-85
2021/03/17 11:35:59;;;;;;;;;;;;;;;21.35;18.85;99713.94;4456679;32;34092;-85
2021/03/17 11:38:27;;;;;;;;;;;;;;;21.41;18.69;99703.84;4469352;32;32793;-84
2021/03/17 11:40:55;;;;;;;;;;;;;;;21.57;18.76;99695.59;4445054;32;32772;-84
2021/03/17 11:43:23;;;;;;;;;;;;;;;21.74;18.48;99703.06;4440463;32;32985;-85
2021/03/17 11:45:51;;;;;;;;;;;;;;;20.75;19.70;99693.75;4454097;32;33128;-85
2021/03/17 11:48:19;;;;;;;;;;;;;;;19.34;20.78;99696.56;4440435;32;33461;-85
2021/03/17 11:50:48;;;;;;;;;;;;;;;20.18;19.87;99696.94;4449340;32;33054;-85
2021/03/17 11:53:17;;;;;;;;;;;;;;;19.42;20.97;99703.13;4445609;32;32767;-86
2021/03/17 11:55:45;;;;;;;;;;;;;;;19.41;21.21;99696.13;4458760;32;33158;-85
2021/03/17 11:58:12;;;;;;;;;;;;;;;18.78;21.49;99698.53;4442469;32;33873;-90
2021/03/17 12:00:40;;;;;;;;;;;;;;;19.10;21.07;99695.59;4453764;32;34764;-89
2021/03/17 12:03:11;;;;;;;;;;;;;;;18.78;21.46;99702.00;4440595;32;34997;-90
2021/03/17 12:05:39;;;;;;;;;;;;;;;18.11;22.31;99697.50;4453704;32;33213;-90
2021/03/17 12:08:06;;;;;;;;;;;;;;;18.39;22.17;99695.75;4440286;32;34339;-90
2021/03/17 12:10:34;;;;;;;;;;;;;;;18.58;22.19;99708.59;4440445;32;33168;-90
2021/03/17 12:13:01;;;;;;;;;;;;;;;17.82;23.40;99700.12;4454917;32;33950;-89
2021/03/17 12:15:28;;;;;;;;;;;;;;;18.18;22.92;99711.97;4442326;32;33027;-89
2021/03/17 12:17:57;;;;;;;;;;;;;;;18.41;22.63;99698.28;4455277;32;34820;-90
2021/03/17 12:20:25;;;;;;;;;;;;;;;19.20;22.00;99701.94;4455407;32;34139;-90
2021/03/17 12:22:54;;;;;;;;;;;;;;;19.77;21.29;99695.38;4454912;32;34493;-91
2021/03/17 12:25:23;;;;;;;;;;;;;;;19.99;20.67;99694.72;4430150;32;33485;-92
2021/03/17 12:27:52;;;;;;;;;;;;;;;19.27;21.24;99699.72;4459419;32;35565;-93
2021/03/17 12:30:20;;;;;;;;;;;;;;;19.68;20.74;99691.59;4451629;32;33181;-91
2021/03/17 12:32:51;;;;;;;;;;;;;;;19.87;20.53;99697.41;4458142;32;34644;-92
2021/03/17 12:35:19;;;;;;;;;;;;;;;19.66;20.85;99705.84;4431311;32;31504;-91
2021/03/17 12:37:47;;;;;;;;;;;;;;;18.84;22.33;99708.69;4442870;32;32813;-91
2021/03/17 12:40:17;;;;;;;;;;;;;;;18.76;22.97;99705.69;4445513;32;33153;-93
2021/03/17 12:42:44;;;;;;;;;;;;;;;19.80;21.97;99694.34;4458204;32;33741;-91
2021/03/17 12:45:12;;;;;;;;;;;;;;;19.99;22.03;99700.03;4457830;32;32170;-92
2021/03/17 12:47:40;;;;;;;;;;;;;;;19.75;21.31;99697.28;4445356;32;33243;-92
2021/03/17 12:50:08;;;;;;;;;;;;;;;20.43;20.73;99687.19;4445454;32;33387;-93
2021/03/17 12:52:36;;;;;;;;;;;;;;;19.85;21.60;99681.66;4471254;32;34209;-92
2021/03/17 12:55:05;;;;;;;;;;;;;;;20.93;20.68;99681.81;4445626;32;32559;-92
2021/03/17 12:57:32;;;;;;;;;;;;;;;20.96;20.71;99684.22;4447291;32;33216;-92
2021/03/17 13:00:00;;;;;;;;;;;;;;;20.07;21.80;99690.72;4463883;32;33371;-92
2021/03/17 13:02:27;;;;;;;;;;;;;;;19.99;21.27;99685.97;4462187;32;34762;-92
2021/03/17 13:04:57;;;;;;;;;;;;;;;19.50;24.15;99698.13;4459636;32;31720;-92
2021/03/17 13:07:24;;;;;;;;;;;;;;;18.60;24.59;99704.06;4453187;32;32912;-92